Stations météo

réclame
Mon MeteoGroup
Fehmarnbelt/Grosstonne, Allemagne (10043): Température de l'air & dewpoint: 15.01.2018 13:00:00 - 21.01.2018 13:00:00 (CET)Fehmarnbelt/Grosstonne, Allemagne (10043): water temperature: 15.01.2018 13:00:00 - 21.01.2018 13:00:00 (CET)Fehmarnbelt/Grosstonne, Allemagne (10043): reduced air pressure: 15.01.2018 13:00:00 - 21.01.2018 13:00:00 (CET)
Date & Time tt [°C] td [°C] tw [°C] ppp [hPa]
21.01.2018 13:00:00 3,5 1,2 3,5 1014,6
21.01.2018 12:00:00 3,0 1,0 3,5 1014,1
21.01.2018 11:00:00 3,0 0,5 3,5 1013,6
21.01.2018 10:00:00 2,9 0,4 3,6 1012,7
21.01.2018 09:00:00 2,5 0,7 3,6 1011,7
21.01.2018 08:00:00 2,2 0,9 3,6 1010,6
21.01.2018 07:00:00 2,2 0,9 3,6 1009,5
21.01.2018 06:00:00 2,5 1,0 3,6 1008,7
21.01.2018 05:00:00 2,7 0,7 3,6 1007,9
21.01.2018 04:00:00 2,7 0,7 3,6 1007,0
21.01.2018 03:00:00 2,7 0,0 3,6 1006,2
21.01.2018 02:00:00 2,7 -0,3 3,5 1005,3
21.01.2018 01:00:00 2,7 -0,3 3,5 1004,7
21.01.2018 00:00:00 2,7 -0,1 3,5 1004,0
20.01.2018 23:00:00 2,5 0,0 3,5 1003,6
20.01.2018 22:00:00 2,7 -0,5 3,5 1003,3
20.01.2018 21:00:00 2,7 0,0 3,5 1002,9
20.01.2018 20:00:00 2,7 -0,3 3,4 1002,5
20.01.2018 19:00:00 2,5 0,0 3,4 1002,6
20.01.2018 18:00:00 2,2 -0,6 3,5 1002,5
20.01.2018 17:00:00 2,2 -0,3 3,4 1002,6
20.01.2018 16:00:00 2,2 -0,3 3,4 1002,6
20.01.2018 15:00:00 2,2 -0,5 3,4 1002,7
20.01.2018 14:00:00 2,4 -0,8 3,4 1002,8
20.01.2018 13:00:00 2,2 -0,3 3,4 1003,3
20.01.2018 12:00:00 2,0 0,2 3,4 1003,8
20.01.2018 11:00:00 1,9 -0,1 3,4 1004,3
20.01.2018 10:00:00 2,0 0,2 3,4 1004,4
20.01.2018 09:00:00 2,0 0,4 3,4 1004,2
20.01.2018 08:00:00 2,2 0,4 3,4 1003,9
20.01.2018 07:00:00 2,2 0,5 3,4 1004,1
20.01.2018 06:00:00 2,4 0,5 3,4 1004,0
20.01.2018 05:00:00 2,5 0,2 3,4 1004,0
20.01.2018 04:00:00 2,5 0,4 3,4 1004,5
20.01.2018 03:00:00 2,5 0,5 3,6 1004,7
20.01.2018 02:00:00 2,7 0,7 3,6 1004,7
20.01.2018 01:00:00 2,7 1,5 3,5 1004,6
20.01.2018 00:00:00 2,7 1,2 3,6 1004,7
19.01.2018 23:00:00 2,7 1,2 3,6 1004,7
19.01.2018 22:00:00 2,7 1,5 3,7 1004,5
19.01.2018 21:00:00 2,7 1,4 3,7 1004,5
19.01.2018 20:00:00 2,5 2,0 3,7 1004,3
19.01.2018 19:00:00 1,7 0,7 3,7 1004,4
19.01.2018 18:00:00 2,4 1,0 3,7 1004,3
19.01.2018 17:00:00 2,4 1,2 3,8 1004,4
19.01.2018 16:00:00 2,2 1,0 3,9 1004,2
19.01.2018 15:00:00 2,7 1,4 3,9 1003,7
19.01.2018 14:00:00 4,2 1,4 3,9 1003,4
19.01.2018 13:00:00 3,4 1,7 3,9 1003,3
19.01.2018 12:00:00 2,5 1,7 3,9 1003,3
19.01.2018 11:00:00 2,4 1,5 3,9 1003,0
19.01.2018 10:00:00 2,5 1,4 3,9 1002,4
19.01.2018 09:00:00 2,4 1,7 3,9 1001,8
19.01.2018 08:00:00 2,0 1,0 3,9 1001,1
19.01.2018 07:00:00 2,2 1,2 3,9 1000,4
19.01.2018 06:00:00 2,5 1,5 3,8 1000,1
19.01.2018 05:00:00 2,4 1,7 3,8 999,6
19.01.2018 04:00:00 2,7 0,7 3,8 999,2
19.01.2018 03:00:00 2,5 0,2 3,8 998,8
19.01.2018 02:00:00 2,2 -0,5 3,9 998,6
19.01.2018 01:00:00 2,4 0,0 3,9 998,0
19.01.2018 00:00:00 2,5 0,2 3,9 997,4
18.01.2018 23:00:00 2,7 -0,5 3,9 996,9
18.01.2018 22:00:00 2,7 0,2 3,9 996,0
18.01.2018 21:00:00 2,7 1,2 3,9 995,2
18.01.2018 20:00:00 2,7 1,7 3,9 994,0
18.01.2018 19:00:00 2,4 1,5 3,9 992,7
18.01.2018 18:00:00 2,0 1,2 3,9 991,2
18.01.2018 17:00:00 2,2 1,2 3,9 989,1
18.01.2018 16:00:00 2,2 1,2 3,9 986,5
18.01.2018 15:00:00 1,7 1,2 3,9 984,4
18.01.2018 14:00:00 1,4 0,9 3,9 983,3
18.01.2018 13:00:00 1,5 1,0 3,9 983,5
18.01.2018 12:00:00 2,2 1,5 3,9 985,0
18.01.2018 11:00:00 2,4 1,5 4,0 986,5
18.01.2018 10:00:00 2,7 1,5 4,0 988,1
18.01.2018 09:00:00 2,5 1,2 4,0 990,1
18.01.2018 08:00:00 2,7 1,4 4,0 991,7
18.01.2018 07:00:00 2,7 1,4 4,0 993,1
18.01.2018 06:00:00 3,0 1,2 4,0 994,3
18.01.2018 05:00:00 2,7 1,2 4,0 995,0
18.01.2018 04:00:00 2,7 1,2 4,1 995,8
18.01.2018 03:00:00 2,9 1,5 4,1 996,3
18.01.2018 02:00:00 3,2 1,5 4,1 996,4
18.01.2018 01:00:00 3,2 2,0 4,1 996,8
18.01.2018 00:00:00 3,2 1,5 4,1 996,7
17.01.2018 23:00:00 3,4 1,2 4,0 996,3
17.01.2018 22:00:00 3,2 1,2 4,1 995,9
17.01.2018 21:00:00 3,2 1,0 3,8 995,5
17.01.2018 20:00:00 2,7 0,9 3,8 995,0
17.01.2018 19:00:00 3,0 0,7 4,0 994,3
17.01.2018 18:00:00 3,0 0,7 4,1 993,7
17.01.2018 17:00:00 3,4 0,9 4,1 993,1
17.01.2018 16:00:00 3,2 1,0 4,2 992,3
17.01.2018 15:00:00 3,0 0,7 4,2 991,4
17.01.2018 14:00:00 3,2 0,5 4,2 990,7
17.01.2018 13:00:00 2,9 1,0 4,3 990,2
17.01.2018 12:00:00 3,0 1,0 4,2 989,3
17.01.2018 11:00:00 2,9 1,0 4,2 989,1
17.01.2018 10:00:00 2,5 0,5 4,2 988,6
17.01.2018 09:00:00 2,7 0,7 4,2 987,9
17.01.2018 08:00:00 2,5 0,5 4,2 987,2
17.01.2018 07:00:00 2,5 0,4 4,2 986,5
17.01.2018 06:00:00 2,5 0,5 4,3 986,0
17.01.2018 05:00:00 2,5 0,5 4,3 986,1
17.01.2018 04:00:00 2,5 1,0 4,3 986,1
17.01.2018 03:00:00 2,5 1,0 4,3 986,2
17.01.2018 02:00:00 2,7 0,9 4,4 986,4
17.01.2018 01:00:00 2,7 1,2 4,4 986,5
17.01.2018 00:00:00 2,5 1,4 4,4 986,3
16.01.2018 23:00:00 2,7 1,5 4,4 986,5
16.01.2018 22:00:00 2,9 1,4 4,4 986,2
16.01.2018 21:00:00 2,7 1,4 4,4 986,1
16.01.2018 20:00:00 2,7 1,4 4,4 986,0
16.01.2018 19:00:00 2,9 1,4 4,4 985,7
16.01.2018 18:00:00 3,2 1,5 4,4 985,5
16.01.2018 17:00:00 3,7 1,5 4,4 985,3
16.01.2018 16:00:00 4,0 2,4 4,4 984,8
16.01.2018 15:00:00 4,0 2,0 4,4 984,7
16.01.2018 14:00:00 4,5 2,2 4,4 984,6
16.01.2018 13:00:00 4,5 2,0 4,4 984,8
16.01.2018 12:00:00 4,2 2,5 4,4 985,3
16.01.2018 11:00:00 4,2 2,5 4,4 985,5
16.01.2018 10:00:00 4,2 3,0 4,4 985,4
16.01.2018 09:00:00 3,0 2,5 4,4 985,4
16.01.2018 08:00:00 4,4 2,5 4,4 984,9
16.01.2018 07:00:00 4,4 2,5 4,4 984,8
16.01.2018 06:00:00 4,7 3,4 4,4 984,6
16.01.2018 05:00:00 4,7 3,5 4,4 984,5
16.01.2018 04:00:00 3,7 3,2 4,4 984,6
16.01.2018 03:00:00 3,2 2,4 4,4 984,6
16.01.2018 02:00:00 2,5 2,0 4,4 985,3
16.01.2018 01:00:00 3,0 2,0 4,4 986,9
16.01.2018 00:00:00 3,2 1,9 4,4 988,6
15.01.2018 23:00:00 3,2 1,5 4,4 990,7
15.01.2018 22:00:00 3,4 1,2 4,5 992,5
15.01.2018 21:00:00 3,0 1,4 4,5 994,4
15.01.2018 20:00:00 3,5 1,0 4,5 996,2
15.01.2018 19:00:00 3,0 1,4 4,5 997,9
15.01.2018 18:00:00 3,2 0,2 4,6 999,7
15.01.2018 17:00:00 3,2 0,4 4,6 1001,0
15.01.2018 16:00:00 2,9 -0,1 4,5 1002,7
15.01.2018 15:00:00 2,5 -0,5 4,5 1004,3
15.01.2018 14:00:00 2,2 -1,1 4,5 1006,1
15.01.2018 13:00:00 2,0 -1,1 4,5 1007,4

tt = Température de l'air
td = dewpoint
tw = water temperature
ppp = reduced air pressure

stations d'obs. à proximité